Gardiner, Oregon
Current Conditions -  °F | °C
As of 11:55 AM on Friday 24 Oct 2014 (Local Time) from KOTH Reporting Station
Overcast Overcast  
Wind Chill: 55°   Ceiling: 7000
Heat Index: 55°   Visibility: 8mi
Dew Point: 55°   Wind: 5mph
Humidity: 100%   Direction: 90°E
Pressure: 29.86"   Gusts: NA
Location:  43.73°N, 124.11°W
Report Text: KOTH 241855Z 09004KT 8SM OVC070 13/13 A2986 RMK AO1 P0007
Loading
Personal Weather Stations






























Interactive Weather Map
Tropical Storm Tracking
New forecast layout! Learn more

10-Day Weather Forecast

Advertisements
Track Severe Weather on mobile